createdAt,value
2023-04-18T00:01:51.922Z,72.34
2023-04-18T00:04:19.457Z,72.26
2023-04-18T00:06:47.260Z,72.79
2023-04-18T00:09:14.067Z,72.52
2023-04-18T00:11:41.297Z,72.08
2023-04-18T00:14:08.531Z,71.99
2023-04-18T00:16:36.240Z,72.09
2023-04-18T00:19:04.739Z,71.74
2023-04-18T00:21:32.977Z,71.84
2023-04-18T00:23:59.841Z,71.77
2023-04-18T00:26:28.154Z,72.12
2023-04-18T00:28:55.003Z,72.20
2023-04-18T00:31:21.832Z,71.72
2023-04-18T00:33:48.768Z,71.90
2023-04-18T00:36:15.628Z,71.97
2023-04-18T00:38:42.518Z,72.64
2023-04-18T00:41:09.363Z,72.88
2023-04-18T00:43:37.134Z,73.21
2023-04-18T00:46:03.984Z,73.19
2023-04-18T00:48:31.282Z,73.02
2023-04-18T00:51:00.190Z,72.87
2023-04-18T00:53:28.128Z,72.65
2023-04-18T00:55:55.525Z,73.40
2023-04-18T00:58:22.545Z,72.88
2023-04-18T01:00:49.682Z,72.91
2023-04-18T01:03:18.410Z,72.89
2023-04-18T01:05:46.498Z,72.97
2023-04-18T01:08:13.996Z,72.91
2023-04-18T01:10:40.876Z,72.84
2023-04-18T01:13:19.690Z,73.12
2023-04-18T01:15:50.871Z,72.80
2023-04-18T01:18:19.027Z,72.58
2023-04-18T01:20:51.281Z,72.70
2023-04-18T01:23:19.739Z,72.44
2023-04-18T01:25:49.146Z,72.04
2023-04-18T01:28:16.484Z,72.28
2023-04-18T01:30:43.330Z,72.55
2023-04-18T01:33:10.531Z,71.95
2023-04-18T01:35:37.350Z,72.19
2023-04-18T01:38:04.258Z,71.75
2023-04-18T01:40:31.341Z,72.42
2023-04-18T01:42:58.258Z,72.02
2023-04-18T01:45:25.115Z,71.60
2023-04-18T01:47:52.071Z,71.80
2023-04-18T01:50:18.991Z,72.04
2023-04-18T01:52:45.920Z,72.22
2023-04-18T01:55:12.812Z,71.69
2023-04-18T01:57:39.823Z,71.98
2023-04-18T02:00:08.032Z,72.27
2023-04-18T02:02:35.108Z,72.34
2023-04-18T02:05:02.088Z,72.59
2023-04-18T02:07:29.061Z,72.92
2023-04-18T02:09:55.925Z,72.83
2023-04-18T02:12:22.737Z,72.74
2023-04-18T02:14:53.540Z,72.43
2023-04-18T02:17:23.972Z,72.59
2023-04-18T02:19:51.649Z,72.28
2023-04-18T02:22:18.826Z,72.60
2023-04-18T02:24:46.109Z,73.23
2023-04-18T02:27:12.986Z,72.63
2023-04-18T02:29:39.950Z,72.47
2023-04-18T02:32:07.247Z,72.48
2023-04-18T02:34:34.224Z,72.11
2023-04-18T02:37:01.022Z,72.07
2023-04-18T02:39:27.935Z,71.92
2023-04-18T02:41:54.781Z,71.82
2023-04-18T02:44:21.550Z,71.46
2023-04-18T02:46:48.459Z,71.47
2023-04-18T02:49:15.326Z,71.16
2023-04-18T02:51:42.177Z,71.43
2023-04-18T02:54:08.983Z,71.52
2023-04-18T02:56:39.927Z,71.02
2023-04-18T02:59:07.333Z,71.39
2023-04-18T03:01:34.401Z,71.64
2023-04-18T03:04:01.320Z,71.71
2023-04-18T03:06:28.149Z,71.73
2023-04-18T03:08:55.822Z,72.11
2023-04-18T03:11:22.807Z,72.11
2023-04-18T03:13:49.594Z,71.80
2023-04-18T03:16:16.864Z,71.61
2023-04-18T03:18:43.833Z,72.02
2023-04-18T03:21:11.420Z,72.14
2023-04-18T03:23:38.574Z,72.31
2023-04-18T03:26:13.730Z,72.30
2023-04-18T03:28:40.804Z,72.53
2023-04-18T03:31:07.738Z,73.03
2023-04-18T03:33:34.565Z,72.97
2023-04-18T03:36:01.540Z,73.01
2023-04-18T03:38:28.371Z,72.91
2023-04-18T03:40:55.265Z,72.98
2023-04-18T03:43:22.068Z,72.59
2023-04-18T03:45:49.028Z,72.69
2023-04-18T03:48:16.022Z,72.43
2023-04-18T03:50:42.806Z,72.58
2023-04-18T03:53:09.642Z,72.53
2023-04-18T03:55:36.572Z,72.43
2023-04-18T03:58:03.449Z,72.46
2023-04-18T04:00:30.454Z,72.57
2023-04-18T04:02:57.414Z,72.57
2023-04-18T04:05:24.479Z,72.65
2023-04-18T04:07:51.353Z,72.45
2023-04-18T04:10:18.157Z,72.03
2023-04-18T04:12:45.075Z,72.16
2023-04-18T04:15:12.272Z,72.56
2023-04-18T04:17:39.215Z,72.44
2023-04-18T04:20:07.321Z,72.24
2023-04-18T04:22:34.506Z,72.08
2023-04-18T04:25:01.356Z,72.47
2023-04-18T04:27:28.234Z,72.66
2023-04-18T04:29:56.334Z,72.62
2023-04-18T04:32:25.012Z,72.65
2023-04-18T04:34:52.155Z,72.74
2023-04-18T04:37:21.486Z,72.96
2023-04-18T04:39:48.367Z,72.64
2023-04-18T04:42:15.300Z,72.78
2023-04-18T04:44:42.996Z,72.29
2023-04-18T04:47:09.859Z,71.86
2023-04-18T04:49:36.723Z,73.18
2023-04-18T04:52:03.535Z,72.75
2023-04-18T04:54:30.505Z,72.71
2023-04-18T04:56:57.375Z,72.65
2023-04-18T04:59:24.223Z,72.34
2023-04-18T05:01:51.153Z,72.65
2023-04-18T05:04:18.512Z,72.73
2023-04-18T05:06:46.115Z,72.79
2023-04-18T05:09:13.574Z,72.26
2023-04-18T05:11:40.525Z,72.09
2023-04-18T05:14:07.459Z,71.86
2023-04-18T05:16:34.657Z,72.14
2023-04-18T05:19:01.592Z,71.74
2023-04-18T05:21:29.352Z,71.39
2023-04-18T05:23:56.291Z,71.94
2023-04-18T05:26:23.424Z,71.67
2023-04-18T05:28:50.355Z,70.98
2023-04-18T05:31:17.321Z,70.69
2023-04-18T05:33:44.201Z,70.32
2023-04-18T05:36:11.161Z,70.72
2023-04-18T05:38:38.050Z,70.56
2023-04-18T05:41:04.994Z,70.18
2023-04-18T05:43:31.852Z,69.35
2023-04-18T05:45:58.752Z,69.28
2023-04-18T05:48:25.758Z,69.60
2023-04-18T05:50:52.636Z,69.41
2023-04-18T05:53:19.482Z,69.45
2023-04-18T05:55:48.653Z,68.77
2023-04-18T05:58:16.029Z,67.77
2023-04-18T06:00:43.456Z,67.60
2023-04-18T06:03:11.312Z,65.74
2023-04-18T06:05:40.988Z,64.52
2023-04-18T06:08:08.118Z,63.52
2023-04-18T06:10:36.455Z,64.09
2023-04-18T06:13:05.897Z,63.13
2023-04-18T06:15:32.812Z,62.83
2023-04-18T06:17:59.759Z,61.71
2023-04-18T06:20:26.697Z,61.88
2023-04-18T06:22:53.586Z,62.55
2023-04-18T06:25:20.797Z,62.94
2023-04-18T06:27:47.629Z,63.83
2023-04-18T06:30:14.971Z,63.36
2023-04-18T06:32:41.910Z,63.51
2023-04-18T06:35:09.033Z,64.34
2023-04-18T06:37:35.992Z,66.30
2023-04-18T06:40:03.004Z,64.90
2023-04-18T06:42:29.845Z,65.10
2023-04-18T06:44:56.701Z,64.95
2023-04-18T06:47:23.597Z,64.29
2023-04-18T06:49:50.511Z,64.90
2023-04-18T06:52:17.386Z,65.03
2023-04-18T06:54:44.379Z,64.90
2023-04-18T06:57:11.334Z,64.56
2023-04-18T06:59:38.459Z,65.06
2023-04-18T07:02:05.394Z,64.65
2023-04-18T07:04:32.422Z,64.35
2023-04-18T07:06:59.346Z,62.39
2023-04-18T07:09:26.207Z,59.90
2023-04-18T07:11:53.154Z,59.36
2023-04-18T07:14:24.387Z,57.99
2023-04-18T07:16:51.774Z,57.74
2023-04-18T07:19:18.640Z,57.93
2023-04-18T07:21:45.989Z,57.73
2023-04-18T07:24:13.539Z,57.04
2023-04-18T07:26:41.013Z,55.76
2023-04-18T07:29:07.893Z,58.71
2023-04-18T07:31:34.910Z,58.74
2023-04-18T07:34:01.789Z,59.40
2023-04-18T07:36:28.734Z,59.76
2023-04-18T07:38:55.698Z,60.31
2023-04-18T07:41:22.646Z,59.89
2023-04-18T07:43:49.466Z,60.42
2023-04-18T07:46:16.440Z,61.12
2023-04-18T07:48:43.315Z,61.23
2023-04-18T07:51:11.316Z,60.93
2023-04-18T07:53:38.268Z,61.75
2023-04-18T07:56:05.418Z,60.13
2023-04-18T07:58:34.288Z,59.38
2023-04-18T08:01:01.159Z,58.83
2023-04-18T08:03:28.165Z,58.10
2023-04-18T08:05:55.894Z,58.31
2023-04-18T08:08:22.680Z,58.28
2023-04-18T08:10:49.599Z,57.56
2023-04-18T08:13:17.873Z,58.09
2023-04-18T08:15:44.754Z,58.00
2023-04-18T08:18:11.563Z,56.46
2023-04-18T08:20:38.674Z,57.23
2023-04-18T08:23:08.590Z,57.71
2023-04-18T08:25:36.688Z,56.91
2023-04-18T08:28:04.171Z,56.38
2023-04-18T08:30:31.457Z,55.70
2023-04-18T08:33:00.431Z,55.41
2023-04-18T08:35:27.630Z,55.92
2023-04-18T08:37:54.519Z,56.38
2023-04-18T08:40:21.577Z,58.12
2023-04-18T08:42:49.216Z,57.24
2023-04-18T08:45:16.325Z,57.08
2023-04-18T08:47:43.320Z,56.74
2023-04-18T08:50:11.222Z,59.08
2023-04-18T08:52:40.173Z,59.22
2023-04-18T08:55:09.353Z,58.39
2023-04-18T08:57:36.507Z,57.75
2023-04-18T09:00:09.241Z,58.14
2023-04-18T09:02:42.077Z,58.73
2023-04-18T09:05:21.231Z,58.63
2023-04-18T09:07:53.234Z,57.88
2023-04-18T09:10:32.629Z,57.94
2023-04-18T09:13:04.272Z,58.19
2023-04-18T09:15:31.471Z,56.30
2023-04-18T09:18:02.313Z,55.89
2023-04-18T09:20:41.036Z,57.81
2023-04-18T09:23:16.629Z,57.33
2023-04-18T09:25:48.602Z,57.02
2023-04-18T09:28:29.677Z,56.75
2023-04-18T09:31:12.004Z,57.09
2023-04-18T09:33:44.733Z,56.95
2023-04-18T09:36:23.780Z,55.48
2023-04-18T09:38:55.354Z,55.68
2023-04-18T09:41:23.474Z,55.34
2023-04-18T09:43:58.732Z,55.61
2023-04-18T09:46:27.345Z,53.73
2023-04-18T09:48:54.265Z,53.51
2023-04-18T09:51:21.508Z,51.36
2023-04-18T09:53:50.251Z,52.34
2023-04-18T09:56:28.763Z,51.99
2023-04-18T09:59:08.567Z,52.55
2023-04-18T10:01:36.480Z,53.49
2023-04-18T10:04:06.539Z,54.13
2023-04-18T10:06:39.644Z,53.77
2023-04-18T10:09:09.752Z,54.46
2023-04-18T10:11:36.922Z,54.37
2023-04-18T10:14:10.088Z,53.80
2023-04-18T10:16:37.897Z,52.57
2023-04-18T10:19:26.154Z,51.57
2023-04-18T10:22:01.074Z,52.68
2023-04-18T10:24:56.259Z,52.16
2023-04-18T10:27:47.754Z,50.82
2023-04-18T10:30:18.595Z,50.78
2023-04-18T10:32:48.641Z,50.83
2023-04-18T10:35:15.567Z,50.67
2023-04-18T10:37:52.643Z,50.95
2023-04-18T10:40:34.130Z,51.27
2023-04-18T10:43:01.500Z,50.74
2023-04-18T10:45:31.280Z,51.55
2023-04-18T10:48:25.993Z,51.43
2023-04-18T10:51:19.155Z,51.14
2023-04-18T10:53:54.472Z,51.13
2023-04-18T10:56:21.836Z,50.22
2023-04-18T10:58:53.215Z,52.37
2023-04-18T11:01:32.377Z,51.34
2023-04-18T11:04:01.312Z,50.40
2023-04-18T11:06:29.077Z,51.24
2023-04-18T11:09:12.565Z,50.34
2023-04-18T11:11:40.264Z,50.32
2023-04-18T11:14:07.476Z,49.43
2023-04-18T11:16:34.658Z,50.43
2023-04-18T11:19:18.840Z,51.16
2023-04-18T11:21:45.785Z,48.85
2023-04-18T11:24:21.560Z,49.06
2023-04-18T11:26:48.450Z,50.64
2023-04-18T11:29:18.035Z,50.46
2023-04-18T11:31:56.624Z,51.06
2023-04-18T11:34:30.574Z,51.29
2023-04-18T11:36:57.836Z,51.47
2023-04-18T11:39:25.203Z,50.94
2023-04-18T11:41:52.180Z,50.05
2023-04-18T11:44:24.666Z,48.18
2023-04-18T11:46:52.492Z,50.59
2023-04-18T11:49:32.791Z,52.01
2023-04-18T11:52:01.315Z,52.51
2023-04-18T11:54:38.793Z,53.66
2023-04-18T11:57:07.019Z,53.25
2023-04-18T11:59:33.985Z,53.81
2023-04-18T12:02:14.881Z,55.30
2023-04-18T12:04:57.512Z,55.09
2023-04-18T12:07:40.006Z,55.35
2023-04-18T12:10:17.263Z,55.25
2023-04-18T12:12:55.281Z,56.50
2023-04-18T12:15:28.210Z,56.48
2023-04-18T12:18:01.401Z,57.23
2023-04-18T12:20:46.005Z,57.43
2023-04-18T12:23:40.034Z,57.01
2023-04-18T12:26:12.351Z,56.87
2023-04-18T12:28:39.322Z,57.52
2023-04-18T12:31:07.277Z,57.26
2023-04-18T12:33:36.555Z,57.00
2023-04-18T12:36:05.362Z,57.84
2023-04-18T12:38:32.245Z,57.93
2023-04-18T12:40:59.043Z,56.67
2023-04-18T12:43:25.886Z,55.65
2023-04-18T12:45:52.711Z,54.80
2023-04-18T12:48:19.531Z,54.70
2023-04-18T12:50:46.375Z,54.38
2023-04-18T12:53:13.240Z,54.22
2023-04-18T12:55:40.236Z,53.46
2023-04-18T12:58:07.154Z,53.22
2023-04-18T13:00:34.098Z,55.12
2023-04-18T13:03:01.426Z,54.18
2023-04-18T13:05:32.596Z,54.70
2023-04-18T13:10:31.387Z,54.44
2023-04-18T13:12:58.424Z,54.39
2023-04-18T13:15:26.121Z,55.91
2023-04-18T13:17:55.824Z,56.53
2023-04-18T13:20:22.747Z,56.61
2023-04-18T13:22:49.671Z,56.30
2023-04-18T13:25:16.932Z,55.99
2023-04-18T13:27:45.169Z,56.80
2023-04-18T13:30:12.336Z,57.17
2023-04-18T13:32:40.371Z,56.78
2023-04-18T13:35:08.845Z,56.46
2023-04-18T13:37:36.079Z,57.04
2023-04-18T13:40:05.514Z,57.06
2023-04-18T13:42:37.163Z,56.65
2023-04-18T13:45:04.724Z,57.78
2023-04-18T13:47:31.718Z,57.44
2023-04-18T13:49:58.577Z,58.09
2023-04-18T13:52:25.843Z,58.21
2023-04-18T13:54:52.876Z,57.74
2023-04-18T13:57:19.767Z,58.02
2023-04-18T13:59:46.851Z,57.42
2023-04-18T14:02:14.333Z,57.29
2023-04-18T14:04:41.496Z,57.66
2023-04-18T14:07:09.023Z,56.19
2023-04-18T14:09:36.060Z,56.99
2023-04-18T14:12:02.901Z,56.53
2023-04-18T14:14:29.955Z,56.28
2023-04-18T14:16:56.911Z,56.59
2023-04-18T14:19:23.969Z,57.45
2023-04-18T14:21:50.871Z,57.39
2023-04-18T14:24:17.920Z,57.42
2023-04-18T14:26:44.734Z,56.88
2023-04-18T14:29:11.717Z,58.06
2023-04-18T14:31:38.645Z,58.05
2023-04-18T14:34:05.755Z,58.78
2023-04-18T14:36:32.695Z,57.78
2023-04-18T14:38:59.585Z,58.16
2023-04-18T14:41:26.845Z,57.83
2023-04-18T14:43:53.731Z,57.39
2023-04-18T14:46:21.306Z,57.53
2023-04-18T14:48:48.245Z,57.63
2023-04-18T14:51:16.668Z,57.29
2023-04-18T14:53:44.942Z,56.88
2023-04-18T14:56:12.246Z,56.85
2023-04-18T14:58:39.082Z,56.68
2023-04-18T15:01:05.966Z,57.16
2023-04-18T15:03:33.354Z,56.72
2023-04-18T15:06:00.519Z,56.65
2023-04-18T15:08:27.635Z,57.48
2023-04-18T15:10:54.484Z,57.41
2023-04-18T15:13:21.272Z,58.03
2023-04-18T15:15:56.199Z,58.39
2023-04-18T15:18:23.178Z,57.95
2023-04-18T15:20:51.571Z,58.13
2023-04-18T15:23:18.498Z,58.74
2023-04-18T15:25:46.419Z,58.36
2023-04-18T15:28:13.993Z,58.30
2023-04-18T15:30:41.028Z,58.25
2023-04-18T15:33:08.578Z,58.26
2023-04-18T15:35:36.072Z,58.66
2023-04-18T15:38:03.037Z,57.48
2023-04-18T15:40:30.389Z,57.37
2023-04-18T15:42:59.362Z,57.63
2023-04-18T15:45:26.269Z,58.94
2023-04-18T15:47:53.342Z,58.90
2023-04-18T15:50:20.503Z,58.76
2023-04-18T15:52:47.447Z,59.00
2023-04-18T15:55:14.335Z,58.83
2023-04-18T15:57:42.078Z,58.90
2023-04-18T16:00:17.407Z,59.54
2023-04-18T16:02:46.033Z,59.05
2023-04-18T16:05:13.766Z,59.33
2023-04-18T16:07:42.134Z,59.24
2023-04-18T16:10:10.293Z,58.69
2023-04-18T16:12:39.020Z,58.36
2023-04-18T16:15:08.608Z,57.90
2023-04-18T16:17:37.075Z,57.47
2023-04-18T16:20:09.081Z,56.96
2023-04-18T16:22:36.984Z,57.23
2023-04-18T16:25:04.733Z,57.96
2023-04-18T16:27:32.331Z,57.05
2023-04-18T16:29:59.261Z,57.07
2023-04-18T16:32:26.371Z,57.28
2023-04-18T16:34:53.256Z,57.82
2023-04-18T16:37:20.343Z,58.39
2023-04-18T16:39:47.433Z,58.52
2023-04-18T16:42:15.686Z,58.82
2023-04-18T16:44:44.701Z,58.77
2023-04-18T16:47:11.669Z,58.97
2023-04-18T16:49:38.611Z,59.31
2023-04-18T16:52:05.482Z,60.17
2023-04-18T16:54:32.328Z,59.90
2023-04-18T16:56:59.241Z,60.22
2023-04-18T16:59:26.075Z,60.16
2023-04-18T17:01:53.028Z,59.85
2023-04-18T17:04:19.977Z,59.85
2023-04-18T17:06:46.983Z,60.35
2023-04-18T17:09:14.725Z,60.78
2023-04-18T17:11:41.908Z,60.59
2023-04-18T17:14:08.926Z,60.56
2023-04-18T17:16:42.300Z,60.77
2023-04-18T17:19:10.574Z,61.35
2023-04-18T17:21:38.302Z,60.57
2023-04-18T17:24:06.974Z,60.64
2023-04-18T17:26:35.771Z,61.79
2023-04-18T17:29:04.260Z,62.00
2023-04-18T17:31:31.974Z,62.20
2023-04-18T17:33:59.668Z,62.67
2023-04-18T17:36:27.227Z,62.39
2023-04-18T17:38:54.149Z,62.95
2023-04-18T17:41:21.886Z,62.89
2023-04-18T17:43:53.476Z,62.86
2023-04-18T17:46:20.477Z,62.39
2023-04-18T17:48:47.355Z,62.84
2023-04-18T17:51:16.249Z,63.18
2023-04-18T17:53:43.245Z,62.90
2023-04-18T17:56:10.077Z,62.32
2023-04-18T17:58:39.861Z,62.49
2023-04-18T18:01:26.154Z,62.39
2023-04-18T18:03:54.060Z,62.54
2023-04-18T18:06:21.322Z,62.69
2023-04-18T18:08:48.186Z,63.71
2023-04-18T18:11:15.152Z,64.33
2023-04-18T18:13:42.378Z,64.41
2023-04-18T18:16:09.211Z,65.18
2023-04-18T18:18:39.708Z,64.69
2023-04-18T18:21:06.676Z,64.69
2023-04-18T18:23:33.489Z,64.57
2023-04-18T18:26:00.690Z,64.91
2023-04-18T18:28:27.743Z,64.72
2023-04-18T18:30:54.570Z,64.91
2023-04-18T18:33:21.438Z,65.01
2023-04-18T18:35:48.369Z,66.12
2023-04-18T18:38:15.208Z,66.43
2023-04-18T18:40:42.207Z,66.73
2023-04-18T18:43:12.647Z,66.04
2023-04-18T18:45:39.474Z,65.82
2023-04-18T18:48:10.092Z,66.82
2023-04-18T18:50:37.198Z,66.33
2023-04-18T18:53:08.651Z,66.30
2023-04-18T18:55:35.482Z,66.04
2023-04-18T18:58:02.586Z,65.94
2023-04-18T19:00:29.425Z,65.88
2023-04-18T19:02:56.460Z,66.24
2023-04-18T19:05:23.491Z,67.42
2023-04-18T19:07:51.547Z,67.58
2023-04-18T19:10:21.583Z,67.19
2023-04-18T19:12:49.040Z,67.26
2023-04-18T19:15:15.940Z,67.27
2023-04-18T19:17:42.915Z,66.55
2023-04-18T19:20:09.995Z,67.08
2023-04-18T19:22:40.976Z,67.69
2023-04-18T19:25:10.607Z,68.39
2023-04-18T19:27:40.830Z,67.74
2023-04-18T19:30:09.017Z,67.22
2023-04-18T19:32:35.926Z,67.25
2023-04-18T19:35:05.796Z,67.18
2023-04-18T19:37:32.908Z,67.52
2023-04-18T19:39:59.736Z,67.51
2023-04-18T19:42:27.254Z,67.55
2023-04-18T19:44:54.303Z,67.64
2023-04-18T19:47:24.137Z,67.48
2023-04-18T19:49:51.145Z,67.94
2023-04-18T19:52:21.537Z,67.74
2023-04-18T19:54:48.793Z,67.27
2023-04-18T19:57:15.716Z,66.82
2023-04-18T19:59:43.240Z,67.99
2023-04-18T20:02:10.319Z,67.39
2023-04-18T20:04:37.594Z,67.56
2023-04-18T20:07:04.634Z,67.77
2023-04-18T20:09:31.498Z,67.46
2023-04-18T20:12:00.567Z,67.65
2023-04-18T20:14:28.722Z,67.31
2023-04-18T20:16:56.644Z,67.71
2023-04-18T20:19:25.708Z,68.42
2023-04-18T20:21:52.919Z,68.20
2023-04-18T20:24:21.157Z,68.16
2023-04-18T20:26:48.118Z,67.60
2023-04-18T20:29:15.367Z,68.04
2023-04-18T20:31:45.155Z,67.81
2023-04-18T20:34:12.059Z,67.56
2023-04-18T20:36:44.586Z,67.66
2023-04-18T20:39:13.100Z,67.43
2023-04-18T20:41:46.403Z,67.67
2023-04-18T20:44:14.052Z,67.39
2023-04-18T20:46:42.690Z,67.14
2023-04-18T20:49:09.857Z,66.65
2023-04-18T20:51:37.961Z,66.95
2023-04-18T20:54:05.657Z,66.95
2023-04-18T20:56:33.726Z,67.49
2023-04-18T20:59:00.823Z,67.50
2023-04-18T21:01:27.741Z,67.70
2023-04-18T21:03:54.702Z,67.83
2023-04-18T21:06:22.132Z,67.35
2023-04-18T21:08:49.097Z,67.51
2023-04-18T21:11:15.955Z,67.04
2023-04-18T21:13:42.820Z,66.71
2023-04-18T21:16:10.571Z,67.13
2023-04-18T21:18:37.597Z,67.51
2023-04-18T21:21:05.399Z,67.14
2023-04-18T21:23:32.227Z,67.26
2023-04-18T21:25:59.007Z,66.96
2023-04-18T21:28:25.907Z,66.93
2023-04-18T21:30:52.711Z,67.60
2023-04-18T21:33:19.599Z,67.77
2023-04-18T21:35:46.394Z,67.76
2023-04-18T21:38:13.872Z,67.78
2023-04-18T21:40:40.659Z,67.52
2023-04-18T21:43:07.525Z,67.81
2023-04-18T21:45:34.348Z,67.51
2023-04-18T21:48:01.264Z,67.08
2023-04-18T21:50:28.217Z,67.27
2023-04-18T21:52:55.167Z,66.90
2023-04-18T21:55:22.025Z,66.89
2023-04-18T21:57:48.838Z,66.87
2023-04-18T22:00:16.543Z,66.98
2023-04-18T22:02:43.642Z,67.00
2023-04-18T22:05:12.871Z,66.36
2023-04-18T22:07:54.393Z,66.66
2023-04-18T22:10:25.102Z,66.34
2023-04-18T22:12:55.755Z,66.53
2023-04-18T22:15:24.085Z,66.98
2023-04-18T22:17:50.978Z,66.94
2023-04-18T22:20:17.915Z,66.54
2023-04-18T22:22:44.887Z,67.46
2023-04-18T22:25:11.858Z,67.99
2023-04-18T22:27:39.509Z,68.56
2023-04-18T22:30:07.311Z,68.72
2023-04-18T22:32:34.167Z,68.97
2023-04-18T22:35:02.593Z,69.05
2023-04-18T22:37:29.524Z,69.14
2023-04-18T22:39:56.323Z,69.66
2023-04-18T22:42:23.183Z,70.41
2023-04-18T22:44:50.088Z,70.24
2023-04-18T22:47:16.906Z,69.90
2023-04-18T22:49:44.384Z,70.20
2023-04-18T22:52:11.853Z,70.56
2023-04-18T22:54:42.251Z,70.26
2023-04-18T22:57:09.136Z,70.59
2023-04-18T22:59:36.069Z,70.24
2023-04-18T23:02:03.037Z,70.06
2023-04-18T23:04:30.175Z,69.71
2023-04-18T23:06:57.089Z,69.29
2023-04-18T23:09:24.476Z,69.31
2023-04-18T23:11:51.337Z,69.12
2023-04-18T23:14:18.294Z,69.20
2023-04-18T23:16:45.259Z,69.07
2023-04-18T23:19:12.044Z,69.04
2023-04-18T23:21:38.883Z,68.74
2023-04-18T23:24:06.441Z,69.09
2023-04-18T23:26:33.295Z,69.12
2023-04-18T23:29:00.239Z,69.22
2023-04-18T23:31:27.166Z,69.21
2023-04-18T23:33:54.731Z,68.99
2023-04-18T23:36:21.559Z,68.77
2023-04-18T23:38:48.347Z,68.80
2023-04-18T23:41:15.172Z,69.08
2023-04-18T23:43:42.024Z,69.47
2023-04-18T23:46:08.963Z,69.75
2023-04-18T23:48:35.926Z,69.46
2023-04-18T23:51:02.744Z,69.86
2023-04-18T23:53:29.612Z,69.61
2023-04-18T23:55:56.507Z,69.76
2023-04-18T23:58:23.308Z,69.69
